createdAt,value
2023-02-14T00:00:54.747Z,6.40
2023-02-14T00:03:21.466Z,6.40
2023-02-14T00:05:48.222Z,6.40
2023-02-14T00:08:16.149Z,6.30
2023-02-14T00:10:42.870Z,6.30
2023-02-14T00:13:09.577Z,6.30
2023-02-14T00:15:36.294Z,6.30
2023-02-14T00:18:03.487Z,6.20
2023-02-14T00:20:30.207Z,6.20
2023-02-14T00:22:57.181Z,6.10
2023-02-14T00:25:23.868Z,6.10
2023-02-14T00:27:50.645Z,6.10
2023-02-14T00:30:17.462Z,6.10
2023-02-14T00:32:44.385Z,6.10
2023-02-14T00:35:11.623Z,6.10
2023-02-14T00:37:38.427Z,6.10
2023-02-14T00:40:07.194Z,6.00
2023-02-14T00:42:34.240Z,6.00
2023-02-14T00:45:01.115Z,5.90
2023-02-14T00:47:27.872Z,6.00
2023-02-14T00:49:54.580Z,6.00
2023-02-14T00:52:21.376Z,6.00
2023-02-14T00:54:48.069Z,6.00
2023-02-14T00:57:14.819Z,5.90
2023-02-14T00:59:41.560Z,5.90
2023-02-14T01:02:08.336Z,5.90
2023-02-14T01:04:36.512Z,5.90
2023-02-14T01:07:03.379Z,5.90
2023-02-14T01:09:30.064Z,5.90
2023-02-14T01:11:56.838Z,6.00
2023-02-14T01:14:23.790Z,5.90
2023-02-14T01:16:50.520Z,5.90
2023-02-14T01:19:17.335Z,5.80
2023-02-14T01:21:44.301Z,5.70
2023-02-14T01:24:12.752Z,5.70
2023-02-14T01:26:39.732Z,5.70
2023-02-14T01:29:06.612Z,5.70
2023-02-14T01:31:35.129Z,5.60
2023-02-14T01:34:02.860Z,5.60
2023-02-14T01:36:33.741Z,5.60
2023-02-14T01:39:03.958Z,5.60
2023-02-14T01:41:33.166Z,5.50
2023-02-14T01:44:03.119Z,5.50
2023-02-14T01:46:33.101Z,5.60
2023-02-14T01:49:10.802Z,5.60
2023-02-14T01:51:48.812Z,5.50
2023-02-14T01:54:17.534Z,5.50
2023-02-14T01:56:48.440Z,5.40
2023-02-14T01:59:20.782Z,5.50
2023-02-14T02:01:50.340Z,5.40
2023-02-14T02:04:23.776Z,5.40
2023-02-14T02:06:55.877Z,5.40
2023-02-14T02:09:42.334Z,5.40
2023-02-14T02:12:09.276Z,5.40
2023-02-14T02:14:36.664Z,5.40
2023-02-14T02:17:25.172Z,5.30
2023-02-14T02:20:06.479Z,5.40
2023-02-14T02:22:38.920Z,5.40
2023-02-14T02:25:23.609Z,5.30
2023-02-14T02:28:18.301Z,5.30
2023-02-14T02:31:11.043Z,5.20
2023-02-14T02:34:10.905Z,5.20
2023-02-14T02:36:46.285Z,5.10
2023-02-14T02:39:32.716Z,5.10
2023-02-14T02:42:14.446Z,5.10
2023-02-14T02:44:50.945Z,5.00
2023-02-14T02:47:20.604Z,5.10
2023-02-14T02:50:09.284Z,5.10
2023-02-14T02:53:07.738Z,5.10
2023-02-14T02:56:12.696Z,5.10
2023-02-14T02:58:53.739Z,5.10
2023-02-14T03:01:41.653Z,5.10
2023-02-14T03:04:30.454Z,5.00
2023-02-14T03:06:58.980Z,5.10
2023-02-14T03:09:28.658Z,5.20
2023-02-14T03:12:31.361Z,5.20
2023-02-14T03:15:17.025Z,5.20
2023-02-14T03:18:03.231Z,5.10
2023-02-14T03:20:52.387Z,5.00
2023-02-14T03:23:29.332Z,5.00
2023-02-14T03:26:08.176Z,5.00
2023-02-14T03:28:47.748Z,5.00
2023-02-14T03:31:40.710Z,5.00
2023-02-14T03:34:19.398Z,5.00
2023-02-14T03:37:11.369Z,5.10
2023-02-14T03:39:45.918Z,5.10
2023-02-14T03:42:21.439Z,5.00
2023-02-14T03:44:49.348Z,4.90
2023-02-14T03:47:21.330Z,4.80
2023-02-14T03:49:56.596Z,4.80
2023-02-14T03:52:26.680Z,4.80
2023-02-14T03:54:56.680Z,4.80
2023-02-14T03:57:32.513Z,4.80
2023-02-14T03:59:59.681Z,4.70
2023-02-14T04:02:35.804Z,4.70
2023-02-14T04:05:07.348Z,4.70
2023-02-14T04:07:48.807Z,4.70
2023-02-14T04:10:16.944Z,4.70
2023-02-14T04:12:43.786Z,4.70
2023-02-14T04:15:11.513Z,4.70
2023-02-14T04:17:56.964Z,4.60
2023-02-14T04:20:23.807Z,4.60
2023-02-14T04:22:51.716Z,4.60
2023-02-14T04:25:19.960Z,4.60
2023-02-14T04:27:46.799Z,4.60
2023-02-14T04:30:14.970Z,4.70
2023-02-14T04:32:41.807Z,4.80
2023-02-14T04:35:08.753Z,4.80
2023-02-14T04:37:35.572Z,4.60
2023-02-14T04:40:02.332Z,4.60
2023-02-14T04:42:29.428Z,4.50
2023-02-14T04:44:56.246Z,4.50
2023-02-14T04:47:23.041Z,4.50
2023-02-14T04:49:49.861Z,4.40
2023-02-14T04:52:16.614Z,4.40
2023-02-14T04:54:44.254Z,4.40
2023-02-14T04:57:10.979Z,4.30
2023-02-14T04:59:37.661Z,4.30
2023-02-14T05:02:04.462Z,4.20
2023-02-14T05:04:31.493Z,4.20
2023-02-14T05:06:58.562Z,4.20
2023-02-14T05:09:25.193Z,4.30
2023-02-14T05:11:52.189Z,4.30
2023-02-14T05:14:18.850Z,4.30
2023-02-14T05:16:45.547Z,4.30
2023-02-14T05:19:12.402Z,4.30
2023-02-14T05:21:39.125Z,4.20
2023-02-14T05:24:06.142Z,4.20
2023-02-14T05:26:33.212Z,4.20
2023-02-14T05:28:59.875Z,4.20
2023-02-14T05:31:27.016Z,4.20
2023-02-14T05:33:53.899Z,4.10
2023-02-14T05:36:20.713Z,4.10
2023-02-14T05:38:47.424Z,4.10
2023-02-14T05:41:14.181Z,4.10
2023-02-14T05:43:40.986Z,4.10
2023-02-14T05:46:07.733Z,4.20
2023-02-14T05:48:34.878Z,4.20
2023-02-14T05:51:09.487Z,4.20
2023-02-14T05:53:36.777Z,4.20
2023-02-14T05:56:03.757Z,4.10
2023-02-14T05:58:30.971Z,4.20
2023-02-14T06:00:59.030Z,4.20
2023-02-14T06:03:26.241Z,4.20
2023-02-14T06:05:53.000Z,4.10
2023-02-14T06:08:19.864Z,4.10
2023-02-14T06:10:46.793Z,4.10
2023-02-14T06:13:13.586Z,4.00
2023-02-14T06:15:40.383Z,4.10
2023-02-14T06:18:07.487Z,4.00
2023-02-14T06:20:34.309Z,4.00
2023-02-14T06:23:02.116Z,3.90
2023-02-14T06:25:28.962Z,3.90
2023-02-14T06:27:57.422Z,3.90
2023-02-14T06:30:24.947Z,3.90
2023-02-14T06:32:52.024Z,3.80
2023-02-14T06:35:18.888Z,3.80
2023-02-14T06:37:46.046Z,3.80
2023-02-14T06:40:13.543Z,3.80
2023-02-14T06:42:40.449Z,3.80
2023-02-14T06:45:07.679Z,3.80
2023-02-14T06:47:35.233Z,3.80
2023-02-14T06:50:04.765Z,3.80
2023-02-14T06:52:32.863Z,3.80
2023-02-14T06:54:59.632Z,3.80
2023-02-14T06:57:26.332Z,3.80
2023-02-14T06:59:53.082Z,3.80
2023-02-14T07:02:20.973Z,3.90
2023-02-14T07:04:48.482Z,3.90
2023-02-14T07:07:15.257Z,3.90
2023-02-14T07:09:41.935Z,3.90
2023-02-14T07:12:09.410Z,3.90
2023-02-14T07:14:36.474Z,4.00
2023-02-14T07:17:03.262Z,3.90
2023-02-14T07:19:29.932Z,3.90
2023-02-14T07:21:56.577Z,3.90
2023-02-14T07:24:23.299Z,4.00
2023-02-14T07:26:50.059Z,4.00
2023-02-14T07:29:16.856Z,4.00
2023-02-14T07:31:43.734Z,4.10
2023-02-14T07:34:10.604Z,4.10
2023-02-14T07:36:38.966Z,4.20
2023-02-14T07:39:05.988Z,4.40
2023-02-14T07:41:32.720Z,4.40
2023-02-14T07:43:59.660Z,4.40
2023-02-14T07:46:26.492Z,4.60
2023-02-14T07:48:53.186Z,4.70
2023-02-14T07:51:19.998Z,4.70
2023-02-14T07:53:47.071Z,4.80
2023-02-14T07:56:13.824Z,4.90
2023-02-14T07:58:40.697Z,5.20
2023-02-14T08:01:07.433Z,5.30
2023-02-14T08:03:34.155Z,5.50
2023-02-14T08:06:00.928Z,5.60
2023-02-14T08:08:29.826Z,5.70
2023-02-14T08:10:57.114Z,5.80
2023-02-14T08:13:24.164Z,5.90
2023-02-14T08:16:06.266Z,6.00
2023-02-14T08:18:36.588Z,6.10
2023-02-14T08:21:04.321Z,6.20
2023-02-14T08:23:31.306Z,6.30
2023-02-14T08:25:58.375Z,6.40
2023-02-14T08:28:26.394Z,6.50
2023-02-14T08:30:53.940Z,6.60
2023-02-14T08:33:21.269Z,6.60
2023-02-14T08:35:48.301Z,6.70
2023-02-14T08:38:15.189Z,6.70
2023-02-14T08:40:42.064Z,6.90
2023-02-14T08:43:09.604Z,7.00
2023-02-14T08:45:37.220Z,7.00
2023-02-14T08:48:06.653Z,7.10
2023-02-14T08:50:33.965Z,7.30
2023-02-14T08:53:00.775Z,7.30
2023-02-14T08:55:27.805Z,7.20
2023-02-14T08:57:58.109Z,7.30
2023-02-14T09:00:25.069Z,7.50
2023-02-14T09:02:53.350Z,7.60
2023-02-14T09:05:23.245Z,7.80
2023-02-14T09:07:50.794Z,7.90
2023-02-14T09:10:18.877Z,8.00
2023-02-14T09:12:45.885Z,8.10
2023-02-14T09:15:12.933Z,8.10
2023-02-14T09:17:39.808Z,8.10
2023-02-14T09:20:08.926Z,8.20
2023-02-14T09:22:35.709Z,8.30
2023-02-14T09:25:02.747Z,8.40
2023-02-14T09:27:30.194Z,8.30
2023-02-14T09:29:56.859Z,8.40
2023-02-14T09:32:23.718Z,8.40
2023-02-14T09:35:08.861Z,8.40
2023-02-14T09:37:54.463Z,8.60
2023-02-14T09:40:21.883Z,8.70
2023-02-14T09:42:53.642Z,8.90
2023-02-14T09:45:26.914Z,9.20
2023-02-14T09:48:23.840Z,9.40
2023-02-14T09:50:55.888Z,9.50
2023-02-14T09:53:33.881Z,9.80
2023-02-14T09:56:03.748Z,9.90
2023-02-14T09:58:39.337Z,10.10
2023-02-14T10:01:22.250Z,10.20
2023-02-14T10:04:01.411Z,10.30
2023-02-14T10:06:46.294Z,10.40
2023-02-14T10:09:12.968Z,10.40
2023-02-14T10:11:43.782Z,10.50
2023-02-14T10:14:12.796Z,10.60
2023-02-14T10:16:46.177Z,10.60
2023-02-14T10:19:27.470Z,10.70
2023-02-14T10:22:02.454Z,10.80
2023-02-14T10:24:53.919Z,11.00
2023-02-14T10:27:34.947Z,11.20
2023-02-14T10:30:03.482Z,11.30
2023-02-14T10:32:45.140Z,11.60
2023-02-14T10:35:36.854Z,11.70
2023-02-14T10:38:18.492Z,11.90
2023-02-14T10:41:19.144Z,12.00
2023-02-14T10:44:03.670Z,12.20
2023-02-14T10:46:41.154Z,12.40
2023-02-14T10:49:48.678Z,12.50
2023-02-14T10:52:40.810Z,12.50
2023-02-14T10:55:31.964Z,12.50
2023-02-14T10:58:01.585Z,12.70
2023-02-14T11:00:38.494Z,12.70
2023-02-14T11:03:09.496Z,12.70
2023-02-14T11:05:46.210Z,12.90
2023-02-14T11:08:37.958Z,13.30
2023-02-14T11:11:16.560Z,13.90
2023-02-14T11:13:44.164Z,14.10
2023-02-14T11:16:18.318Z,14.10
2023-02-14T11:18:45.057Z,14.10
2023-02-14T11:21:15.028Z,14.30
2023-02-14T11:23:44.941Z,14.50
2023-02-14T11:26:22.098Z,15.30
2023-02-14T11:28:53.687Z,17.20
2023-02-14T11:31:38.806Z,21.00
2023-02-14T11:34:26.178Z,24.50
2023-02-14T11:36:53.669Z,26.70
2023-02-14T11:39:40.655Z,28.60
2023-02-14T11:42:10.894Z,30.70
2023-02-14T11:44:43.912Z,31.60
2023-02-14T11:47:42.915Z,32.30
2023-02-14T11:50:24.642Z,33.20
2023-02-14T11:52:54.739Z,33.90
2023-02-14T11:55:28.084Z,33.80
2023-02-14T11:57:55.558Z,34.60
2023-02-14T12:00:23.516Z,34.70
2023-02-14T12:02:51.458Z,34.50
2023-02-14T12:05:24.127Z,33.20
2023-02-14T12:07:54.093Z,32.60
2023-02-14T12:10:33.154Z,32.40
2023-02-14T12:13:08.766Z,33.20
2023-02-14T12:15:43.143Z,32.60
2023-02-14T12:18:21.952Z,33.00
2023-02-14T12:20:57.060Z,33.40
2023-02-14T12:23:31.803Z,33.40
2023-02-14T12:26:36.586Z,34.00
2023-02-14T12:29:29.419Z,34.10
2023-02-14T12:32:01.536Z,35.10
2023-02-14T12:34:28.557Z,34.70
2023-02-14T12:37:10.698Z,34.90
2023-02-14T12:40:08.546Z,35.30
2023-02-14T12:42:35.349Z,35.80
2023-02-14T12:45:12.791Z,36.00
2023-02-14T12:47:45.456Z,36.20
2023-02-14T12:50:30.326Z,36.30
2023-02-14T12:53:18.727Z,35.90
2023-02-14T12:56:11.939Z,35.90
2023-02-14T12:59:04.437Z,35.60
2023-02-14T13:01:40.311Z,35.90
2023-02-14T13:04:25.917Z,36.30
2023-02-14T13:07:38.044Z,36.00
2023-02-14T13:10:40.429Z,35.90
2023-02-14T13:13:53.087Z,34.90
2023-02-14T13:16:56.002Z,34.40
2023-02-14T13:20:10.213Z,34.30
2023-02-14T13:22:37.433Z,34.50
2023-02-14T13:25:31.623Z,33.50
2023-02-14T13:28:01.718Z,33.50
2023-02-14T13:30:36.926Z,33.60
2023-02-14T13:33:14.840Z,33.70
2023-02-14T13:35:42.251Z,33.70
2023-02-14T13:38:15.417Z,34.20
2023-02-14T13:40:43.089Z,34.10
2023-02-14T13:43:09.868Z,34.10
2023-02-14T13:45:37.661Z,34.00
2023-02-14T13:48:21.513Z,33.50
2023-02-14T13:51:03.825Z,34.00
2023-02-14T13:53:43.724Z,34.10
2023-02-14T13:56:15.277Z,33.80
2023-02-14T13:58:55.073Z,33.60
2023-02-14T14:01:36.969Z,33.70
2023-02-14T14:04:28.819Z,33.70
2023-02-14T14:07:23.359Z,34.00
2023-02-14T14:09:49.981Z,33.80
2023-02-14T14:12:28.759Z,34.10
2023-02-14T14:15:08.087Z,33.50
2023-02-14T14:17:41.949Z,33.10
2023-02-14T14:20:20.642Z,33.30
2023-02-14T14:22:56.651Z,33.20
2023-02-14T14:25:37.246Z,33.40
2023-02-14T14:28:24.407Z,33.10
2023-02-14T14:30:51.656Z,32.60
2023-02-14T14:33:32.475Z,32.00
2023-02-14T14:36:10.083Z,31.90
2023-02-14T14:38:48.446Z,32.10
2023-02-14T14:41:15.254Z,31.10
2023-02-14T14:43:42.265Z,28.00
2023-02-14T14:46:12.698Z,25.90
2023-02-14T14:48:45.382Z,24.20
2023-02-14T14:51:30.650Z,22.80
2023-02-14T14:54:00.663Z,22.10
2023-02-14T14:56:31.173Z,21.20
2023-02-14T14:59:15.231Z,20.30
2023-02-14T15:01:44.068Z,20.50
2023-02-14T15:04:20.653Z,19.50
2023-02-14T15:06:48.402Z,19.40
2023-02-14T15:09:29.487Z,19.00
2023-02-14T15:12:17.061Z,18.90
2023-02-14T15:14:46.347Z,18.80
2023-02-14T15:17:29.204Z,18.70
2023-02-14T15:20:00.822Z,18.40
2023-02-14T15:22:32.864Z,18.10
2023-02-14T15:24:59.938Z,18.00
2023-02-14T15:27:28.401Z,17.80
2023-02-14T15:29:56.963Z,17.70
2023-02-14T15:32:25.883Z,17.80
2023-02-14T15:34:54.073Z,17.90
2023-02-14T15:37:22.042Z,17.70
2023-02-14T15:39:52.475Z,17.60
2023-02-14T15:42:22.646Z,17.40
2023-02-14T15:44:49.417Z,17.30
2023-02-14T15:47:16.810Z,17.20
2023-02-14T15:49:46.561Z,17.10
2023-02-14T15:52:16.194Z,17.10
2023-02-14T15:54:47.664Z,17.10
2023-02-14T15:57:25.429Z,16.90
2023-02-14T15:59:52.558Z,16.90
2023-02-14T16:02:30.447Z,16.90
2023-02-14T16:05:08.507Z,16.90
2023-02-14T16:07:35.417Z,17.00
2023-02-14T16:10:25.096Z,16.90
2023-02-14T16:13:20.438Z,16.80
2023-02-14T16:16:04.800Z,16.80
2023-02-14T16:18:49.895Z,16.50
2023-02-14T16:21:27.620Z,16.30
2023-02-14T16:24:06.829Z,16.10
2023-02-14T16:26:46.846Z,16.00
2023-02-14T16:29:16.189Z,16.10
2023-02-14T16:32:24.054Z,16.00
2023-02-14T16:34:41.620Z,16.00
2023-02-14T16:37:37.637Z,16.00
2023-02-14T16:40:13.249Z,15.80
2023-02-14T16:42:41.100Z,15.90
2023-02-14T16:45:14.153Z,15.80
2023-02-14T16:47:40.881Z,15.80
2023-02-14T16:50:08.158Z,15.70
2023-02-14T16:52:35.362Z,15.60
2023-02-14T16:55:02.824Z,15.70
2023-02-14T16:57:41.574Z,15.60
2023-02-14T17:00:09.583Z,15.60
2023-02-14T17:02:36.953Z,15.50
2023-02-14T17:05:04.191Z,15.40
2023-02-14T17:07:33.127Z,15.40
2023-02-14T17:10:05.300Z,15.20
2023-02-14T17:12:36.380Z,15.10
2023-02-14T17:15:08.308Z,15.10
2023-02-14T17:17:37.394Z,15.00
2023-02-14T17:20:05.780Z,15.00
2023-02-14T17:22:34.261Z,14.90
2023-02-14T17:25:01.058Z,14.90
2023-02-14T17:27:27.700Z,14.80
2023-02-14T17:29:54.661Z,14.70
2023-02-14T17:32:21.394Z,14.70
2023-02-14T17:34:49.147Z,14.70
2023-02-14T17:37:15.921Z,14.50
2023-02-14T17:39:42.712Z,14.20
2023-02-14T17:42:11.730Z,13.90
2023-02-14T17:44:38.917Z,13.70
2023-02-14T17:47:05.996Z,13.60
2023-02-14T17:49:32.797Z,13.40
2023-02-14T17:51:59.560Z,13.10
2023-02-14T17:54:26.334Z,13.00
2023-02-14T17:56:53.373Z,12.80
2023-02-14T17:59:20.346Z,12.70
2023-02-14T18:01:47.128Z,12.50
2023-02-14T18:04:13.963Z,12.50
2023-02-14T18:06:42.502Z,12.50
2023-02-14T18:09:09.261Z,12.40
2023-02-14T18:11:38.713Z,12.30
2023-02-14T18:14:05.351Z,12.20
2023-02-14T18:16:32.143Z,12.20
2023-02-14T18:19:02.987Z,12.00
2023-02-14T18:21:35.560Z,12.00
2023-02-14T18:24:03.766Z,11.90
2023-02-14T18:26:31.289Z,11.80
2023-02-14T18:28:58.806Z,11.70
2023-02-14T18:31:26.709Z,11.70
2023-02-14T18:33:53.789Z,11.60
2023-02-14T18:36:24.297Z,11.60
2023-02-14T18:38:51.155Z,11.70
2023-02-14T18:41:19.938Z,11.80
2023-02-14T18:43:47.378Z,11.80
2023-02-14T18:46:17.217Z,11.80
2023-02-14T18:48:44.455Z,11.60
2023-02-14T18:51:13.695Z,11.50
2023-02-14T18:53:41.081Z,11.40
2023-02-14T18:56:10.188Z,11.20
2023-02-14T18:58:37.251Z,11.40
2023-02-14T19:01:09.374Z,11.40
2023-02-14T19:03:36.460Z,11.10
2023-02-14T19:06:03.538Z,11.10
2023-02-14T19:08:35.058Z,11.10
2023-02-14T19:11:02.546Z,11.10
2023-02-14T19:13:32.157Z,10.90
2023-02-14T19:15:59.581Z,10.90
2023-02-14T19:18:26.821Z,10.90
2023-02-14T19:20:53.548Z,10.90
2023-02-14T19:23:20.230Z,11.00
2023-02-14T19:25:46.964Z,10.90
2023-02-14T19:28:13.836Z,10.90
2023-02-14T19:30:40.598Z,10.90
2023-02-14T19:33:07.369Z,10.80
2023-02-14T19:35:34.126Z,10.70
2023-02-14T19:38:03.471Z,10.70
2023-02-14T19:40:30.853Z,10.60
2023-02-14T19:42:57.852Z,10.60
2023-02-14T19:45:24.620Z,10.50
2023-02-14T19:47:51.271Z,10.40
2023-02-14T19:50:19.423Z,10.30
2023-02-14T19:52:47.142Z,10.20
2023-02-14T19:55:32.012Z,10.20
2023-02-14T19:57:58.769Z,10.30
2023-02-14T20:00:25.553Z,10.30
2023-02-14T20:02:52.473Z,10.20
2023-02-14T20:05:20.056Z,10.20
2023-02-14T20:07:49.228Z,10.20
2023-02-14T20:10:16.682Z,10.20
2023-02-14T20:12:43.374Z,10.00
2023-02-14T20:15:11.069Z,9.90
2023-02-14T20:17:38.112Z,9.80
2023-02-14T20:20:06.086Z,9.80
2023-02-14T20:22:32.812Z,9.60
2023-02-14T20:24:59.951Z,9.50
2023-02-14T20:27:26.818Z,9.40
2023-02-14T20:29:53.854Z,9.40
2023-02-14T20:32:20.749Z,9.40
2023-02-14T20:34:48.020Z,9.40
2023-02-14T20:37:14.702Z,9.30
2023-02-14T20:39:41.721Z,9.30
2023-02-14T20:42:08.562Z,9.30
2023-02-14T20:44:35.639Z,9.30
2023-02-14T20:47:02.476Z,9.20
2023-02-14T20:49:31.055Z,9.20
2023-02-14T20:51:58.173Z,9.10
2023-02-14T20:54:26.379Z,9.10
2023-02-14T20:56:53.309Z,9.00
2023-02-14T20:59:26.792Z,9.00
2023-02-14T21:01:55.092Z,9.00
2023-02-14T21:04:22.272Z,9.00
2023-02-14T21:06:49.089Z,9.00
2023-02-14T21:09:18.690Z,8.90
2023-02-14T21:11:45.419Z,8.80
2023-02-14T21:14:12.502Z,8.80
2023-02-14T21:16:39.261Z,8.80
2023-02-14T21:19:06.003Z,8.70
2023-02-14T21:21:36.440Z,8.70
2023-02-14T21:24:06.872Z,8.70
2023-02-14T21:26:33.928Z,8.70
2023-02-14T21:29:01.566Z,8.70
2023-02-14T21:31:29.223Z,8.70
2023-02-14T21:33:58.922Z,8.70
2023-02-14T21:36:31.572Z,8.80
2023-02-14T21:39:00.255Z,8.90
2023-02-14T21:41:31.112Z,8.80
2023-02-14T21:44:00.008Z,8.70
2023-02-14T21:46:32.815Z,8.60
2023-02-14T21:49:23.741Z,8.60
2023-02-14T21:51:50.517Z,8.50
2023-02-14T21:54:17.577Z,8.60
2023-02-14T21:56:44.497Z,8.60
2023-02-14T21:59:11.969Z,8.50
2023-02-14T22:01:40.474Z,8.40
2023-02-14T22:04:09.515Z,8.40
2023-02-14T22:06:38.681Z,8.40
2023-02-14T22:09:06.287Z,8.40
2023-02-14T22:11:33.825Z,8.40
2023-02-14T22:14:01.161Z,8.40
2023-02-14T22:16:27.839Z,8.30
2023-02-14T22:18:54.589Z,8.30
2023-02-14T22:21:24.253Z,8.20
2023-02-14T22:23:51.529Z,8.10
2023-02-14T22:26:19.869Z,8.20
2023-02-14T22:28:48.115Z,8.10
2023-02-14T22:31:16.911Z,8.00
2023-02-14T22:33:43.756Z,8.00
2023-02-14T22:36:11.113Z,8.00
2023-02-14T22:38:38.694Z,7.90
2023-02-14T22:41:06.413Z,7.80
2023-02-14T22:43:33.613Z,7.80
2023-02-14T22:46:12.162Z,7.80
2023-02-14T22:48:40.175Z,7.80
2023-02-14T22:51:12.849Z,7.70
2023-02-14T22:53:39.736Z,7.80
2023-02-14T22:56:24.787Z,7.80
2023-02-14T22:58:56.072Z,7.70
2023-02-14T23:01:24.284Z,7.70
2023-02-14T23:03:56.821Z,7.60
2023-02-14T23:06:24.952Z,7.60
2023-02-14T23:08:52.391Z,7.60
2023-02-14T23:11:23.672Z,7.60
2023-02-14T23:14:09.259Z,7.60
2023-02-14T23:16:54.880Z,7.60
2023-02-14T23:19:46.374Z,7.60
2023-02-14T23:22:16.136Z,7.60
2023-02-14T23:24:42.961Z,7.50
2023-02-14T23:27:09.908Z,7.40
2023-02-14T23:29:37.341Z,7.40
2023-02-14T23:32:05.596Z,7.30
2023-02-14T23:34:34.629Z,7.30
2023-02-14T23:37:02.244Z,7.30
2023-02-14T23:39:32.471Z,7.30
2023-02-14T23:41:59.436Z,7.30
2023-02-14T23:44:28.447Z,7.30
2023-02-14T23:46:57.859Z,7.30
2023-02-14T23:49:25.536Z,7.30
2023-02-14T23:51:54.467Z,7.40
2023-02-14T23:54:22.381Z,7.30
2023-02-14T23:56:50.038Z,7.20
2023-02-14T23:59:17.309Z,7.10
